createdAt,value
2018-02-17T00:00:15.613Z,78.73
2018-02-17T00:00:56.152Z,78.54
2018-02-17T00:01:36.710Z,78.83
2018-02-17T00:02:17.261Z,78.73
2018-02-17T00:02:57.818Z,78.83
2018-02-17T00:03:38.410Z,78.64
2018-02-17T00:04:18.946Z,79.21
2018-02-17T00:04:59.504Z,78.92
2018-02-17T00:05:40.155Z,78.92
2018-02-17T00:06:20.627Z,79.02
2018-02-17T00:07:01.192Z,79.02
2018-02-17T00:07:41.723Z,79.02
2018-02-17T00:08:22.273Z,78.92
2018-02-17T00:09:02.804Z,78.73
2018-02-17T00:09:43.353Z,79.21
2018-02-17T00:10:23.904Z,79.3
2018-02-17T00:11:04.453Z,79.21
2018-02-17T00:11:45.008Z,78.83
2018-02-17T00:12:25.566Z,78.83
2018-02-17T00:13:06.116Z,79.21
2018-02-17T00:13:46.672Z,78.92
2018-02-17T00:14:27.232Z,78.92
2018-02-17T00:15:07.787Z,79.02
2018-02-17T00:15:48.324Z,78.83
2018-02-17T00:16:28.887Z,78.92
2018-02-17T00:17:09.427Z,79.02
2018-02-17T00:17:49.983Z,78.92
2018-02-17T00:18:30.533Z,79.11
2018-02-17T00:19:11.076Z,79.21
2018-02-17T00:19:51.608Z,79.21
2018-02-17T00:20:32.165Z,79.11
2018-02-17T00:21:12.758Z,78.92
2018-02-17T00:21:53.290Z,79.39
2018-02-17T00:22:33.870Z,79.39
2018-02-17T00:23:14.413Z,79.3
2018-02-17T00:23:54.970Z,79.49
2018-02-17T00:24:35.529Z,79.3
2018-02-17T00:25:16.079Z,79.3
2018-02-17T00:25:56.638Z,79.3
2018-02-17T00:26:37.198Z,79.11
2018-02-17T00:27:17.748Z,79.45
2018-02-17T00:27:58.283Z,79.49
2018-02-17T00:28:38.829Z,79.36
2018-02-17T00:29:19.376Z,79.21
2018-02-17T00:29:59.929Z,79.45
2018-02-17T00:30:40.498Z,79.58
2018-02-17T00:31:21.037Z,79.49
2018-02-17T00:32:01.609Z,79.39
2018-02-17T00:32:42.172Z,79.07
2018-02-17T00:33:22.729Z,79.36
2018-02-17T00:34:03.278Z,79.26
2018-02-17T00:34:43.839Z,79.93
2018-02-17T00:35:24.375Z,79.93
2018-02-17T00:36:04.939Z,79.93
2018-02-17T00:36:45.475Z,79.83
2018-02-17T00:37:26.016Z,79.93
2018-02-17T00:38:06.568Z,79.96
2018-02-17T00:38:47.117Z,79.83
2018-02-17T00:39:27.658Z,79.93
2018-02-17T00:40:08.221Z,79.68
2018-02-17T00:40:48.786Z,79.74
2018-02-17T00:41:29.327Z,79.93
2018-02-17T00:42:09.880Z,79.83
2018-02-17T00:42:50.449Z,79.74
2018-02-17T00:43:31.001Z,80.02
2018-02-17T00:44:11.557Z,79.77
2018-02-17T00:44:52.107Z,79.77
2018-02-17T00:45:32.666Z,79.96
2018-02-17T00:46:13.243Z,79.77
2018-02-17T00:46:53.781Z,79.68
2018-02-17T00:47:34.319Z,80.15
2018-02-17T00:48:14.868Z,79.49
2018-02-17T00:48:55.423Z,79.36
2018-02-17T00:49:35.969Z,79.3
2018-02-17T00:50:16.545Z,79.49
2018-02-17T00:50:57.112Z,79.45
2018-02-17T00:51:37.660Z,79.21
2018-02-17T00:52:18.205Z,79.07
2018-02-17T00:52:58.753Z,79.55
2018-02-17T00:53:39.307Z,79.07
2018-02-17T00:54:19.870Z,79.74
2018-02-17T00:55:00.398Z,79.45
2018-02-17T00:55:40.984Z,79.36
2018-02-17T00:56:21.556Z,79.07
2018-02-17T00:57:02.105Z,79.36
2018-02-17T00:57:42.695Z,79.45
2018-02-17T00:58:23.240Z,79.45
2018-02-17T00:59:03.789Z,79.45
2018-02-17T00:59:44.335Z,79.45
2018-02-17T01:00:24.880Z,79.07
2018-02-17T01:01:05.425Z,79.17
2018-02-17T01:01:46.010Z,79.45
2018-02-17T01:02:26.555Z,79.17
2018-02-17T01:03:07.102Z,79.17
2018-02-17T01:03:47.653Z,79.36
2018-02-17T01:04:28.207Z,79.45
2018-02-17T01:05:08.754Z,79.64
2018-02-17T01:05:49.308Z,80.02
2018-02-17T01:06:29.858Z,79.45
2018-02-17T01:07:10.388Z,79.26
2018-02-17T01:07:50.944Z,79.36
2018-02-17T01:08:31.483Z,80.11
2018-02-17T01:09:12.041Z,80.11
2018-02-17T01:09:52.593Z,79.93
2018-02-17T01:10:33.155Z,79.83
2018-02-17T01:11:13.691Z,79.83
2018-02-17T01:11:54.251Z,79.64
2018-02-17T01:12:34.793Z,79.74
2018-02-17T01:13:15.357Z,79.93
2018-02-17T01:13:55.912Z,79.83
2018-02-17T01:14:36.498Z,79.74
2018-02-17T01:15:17.034Z,79.83
2018-02-17T01:15:57.589Z,79.83
2018-02-17T01:16:38.122Z,79.93
2018-02-17T01:17:18.669Z,79.74
2018-02-17T01:17:59.223Z,80.49
2018-02-17T01:18:39.768Z,80.3
2018-02-17T01:19:20.318Z,80.4
2018-02-17T01:20:00.868Z,80.11
2018-02-17T01:20:41.413Z,80.11
2018-02-17T01:21:21.961Z,80.21
2018-02-17T01:22:02.526Z,80.11
2018-02-17T01:22:43.064Z,80.21
2018-02-17T01:23:23.610Z,79.55
2018-02-17T01:24:04.156Z,79.83
2018-02-17T01:24:44.726Z,79.74
2018-02-17T01:25:25.301Z,79.64
2018-02-17T01:26:05.855Z,79.83
2018-02-17T01:26:46.413Z,79.93
2018-02-17T01:27:26.965Z,79.83
2018-02-17T01:28:07.531Z,79.83
2018-02-17T01:28:48.080Z,79.64
2018-02-17T01:29:28.631Z,79.74
2018-02-17T01:30:09.183Z,79.93
2018-02-17T01:30:49.737Z,79.83
2018-02-17T01:31:30.282Z,80.11
2018-02-17T01:32:10.829Z,80.4
2018-02-17T01:32:51.372Z,79.93
2018-02-17T01:33:31.948Z,80.49
2018-02-17T01:34:12.474Z,79.83
2018-02-17T01:34:53.051Z,80.77
2018-02-17T01:35:33.603Z,80.77
2018-02-17T01:36:14.174Z,81.15
2018-02-17T01:36:54.724Z,80.96
2018-02-17T01:37:35.282Z,80.58
2018-02-17T01:38:15.838Z,81.06
2018-02-17T01:38:56.413Z,80.77
2018-02-17T01:39:36.949Z,80.58
2018-02-17T01:40:17.490Z,80.77
2018-02-17T01:40:58.042Z,80.87
2018-02-17T01:41:38.607Z,80.87
2018-02-17T01:42:19.189Z,80.68
2018-02-17T01:42:59.750Z,81.34
2018-02-17T01:43:40.311Z,81.25
2018-02-17T01:44:20.847Z,81.25
2018-02-17T01:45:01.401Z,82.06
2018-02-17T01:45:41.963Z,81.87
2018-02-17T01:46:22.525Z,81.87
2018-02-17T01:47:03.078Z,81.59
2018-02-17T01:47:43.629Z,81.87
2018-02-17T01:48:24.179Z,81.96
2018-02-17T01:49:04.774Z,82.15
2018-02-17T01:49:45.320Z,82.15
2018-02-17T01:50:25.885Z,82.34
2018-02-17T01:51:06.440Z,82.53
2018-02-17T01:51:46.999Z,82.53
2018-02-17T01:52:27.550Z,82.25
2018-02-17T01:53:08.109Z,82.53
2018-02-17T01:53:48.678Z,81.96
2018-02-17T01:54:29.970Z,82.15
2018-02-17T01:55:10.512Z,82.15
2018-02-17T01:55:51.066Z,82.25
2018-02-17T01:56:31.612Z,82.25
2018-02-17T01:57:12.168Z,82.91
2018-02-17T01:57:52.719Z,82.67
2018-02-17T01:58:33.268Z,82.76
2018-02-17T01:59:13.826Z,82.72
2018-02-17T01:59:54.393Z,82.67
2018-02-17T02:00:34.939Z,82.29
2018-02-17T02:01:15.517Z,82.29
2018-02-17T02:01:56.040Z,82.76
2018-02-17T02:02:36.569Z,82.2
2018-02-17T02:03:17.106Z,82.2
2018-02-17T02:03:57.688Z,82.2
2018-02-17T02:04:38.262Z,82.29
2018-02-17T02:05:18.797Z,82.2
2018-02-17T02:05:59.361Z,82.48
2018-02-17T02:06:39.903Z,82.48
2018-02-17T02:07:20.451Z,82.29
2018-02-17T02:08:01.007Z,82.2
2018-02-17T02:08:41.555Z,82.67
2018-02-17T02:09:22.108Z,82.1
2018-02-17T02:10:02.654Z,82.2
2018-02-17T02:10:43.204Z,82.01
2018-02-17T02:11:23.758Z,82.29
2018-02-17T02:12:04.308Z,82.2
2018-02-17T02:12:44.899Z,82.67
2018-02-17T02:13:25.437Z,81.92
2018-02-17T02:14:05.986Z,82.29
2018-02-17T02:14:46.542Z,82.2
2018-02-17T02:15:27.070Z,81.92
2018-02-17T02:16:07.640Z,82.39
2018-02-17T02:16:48.182Z,82.2
2018-02-17T02:17:28.721Z,82.57
2018-02-17T02:18:09.304Z,82.1
2018-02-17T02:18:49.880Z,82.2
2018-02-17T02:19:30.449Z,82.2
2018-02-17T02:20:10.977Z,82.2
2018-02-17T02:20:51.525Z,81.82
2018-02-17T02:21:32.093Z,82.2
2018-02-17T02:22:12.635Z,82.2
2018-02-17T02:22:53.180Z,81.82
2018-02-17T02:23:33.744Z,82.1
2018-02-17T02:24:14.327Z,81.92
2018-02-17T02:24:54.889Z,82.48
2018-02-17T02:25:35.430Z,82.48
2018-02-17T02:26:15.983Z,82.29
2018-02-17T02:26:56.530Z,82.2
2018-02-17T02:27:37.099Z,82.2
2018-02-17T02:28:17.666Z,82.1
2018-02-17T02:28:58.237Z,82.29
2018-02-17T02:29:38.779Z,81.82
2018-02-17T02:30:19.484Z,82.01
2018-02-17T02:31:00.100Z,81.53
2018-02-17T02:31:40.632Z,81.25
2018-02-17T02:32:21.204Z,81.34
2018-02-17T02:33:01.757Z,81.63
2018-02-17T02:33:42.334Z,81.63
2018-02-17T02:34:22.904Z,81.25
2018-02-17T02:35:03.454Z,81.34
2018-02-17T02:35:44.010Z,81.63
2018-02-17T02:36:24.568Z,81.06
2018-02-17T02:37:05.118Z,81.34
2018-02-17T02:37:45.682Z,81.34
2018-02-17T02:38:26.229Z,81.34
2018-02-17T02:39:06.779Z,81.15
2018-02-17T02:39:47.337Z,81.34
2018-02-17T02:40:27.898Z,81.53
2018-02-17T02:41:08.454Z,81.34
2018-02-17T02:41:48.998Z,81.15
2018-02-17T02:42:29.564Z,80.96
2018-02-17T02:43:10.111Z,81.06
2018-02-17T02:43:50.660Z,81.06
2018-02-17T02:44:31.229Z,80.96
2018-02-17T02:45:11.779Z,80.58
2018-02-17T02:45:52.351Z,80.87
2018-02-17T02:46:32.899Z,80.87
2018-02-17T02:47:13.445Z,80.87
2018-02-17T02:47:53.994Z,81.15
2018-02-17T02:48:34.575Z,80.77
2018-02-17T02:49:15.120Z,80.49
2018-02-17T02:49:55.672Z,80.49
2018-02-17T02:50:36.223Z,80.77
2018-02-17T02:51:16.797Z,80.77
2018-02-17T02:51:57.340Z,80.58
2018-02-17T02:52:37.896Z,80.44
2018-02-17T02:53:18.479Z,80.49
2018-02-17T02:53:59.050Z,80.87
2018-02-17T02:54:39.595Z,81.01
2018-02-17T02:55:20.157Z,79.96
2018-02-17T02:56:00.721Z,79.93
2018-02-17T02:56:41.789Z,79.83
2018-02-17T02:57:22.405Z,80.58
2018-02-17T02:58:02.945Z,80.4
2018-02-17T02:58:43.484Z,80.4
2018-02-17T02:59:24.033Z,80.4
2018-02-17T03:00:04.617Z,80.21
2018-02-17T03:00:45.227Z,80.21
2018-02-17T03:01:25.800Z,80.11
2018-02-17T03:02:06.468Z,79.83
2018-02-17T03:02:47.001Z,80.58
2018-02-17T03:03:27.540Z,80.58
2018-02-17T03:04:08.133Z,80.87
2018-02-17T03:04:48.696Z,80.68
2018-02-17T03:05:29.275Z,80.68
2018-02-17T03:06:09.828Z,80.58
2018-02-17T03:06:50.394Z,80.58
2018-02-17T03:07:30.956Z,80.87
2018-02-17T03:08:11.507Z,80.87
2018-02-17T03:08:52.099Z,80.58
2018-02-17T03:09:32.661Z,80.58
2018-02-17T03:10:13.229Z,80.49
2018-02-17T03:10:53.791Z,80.58
2018-02-17T03:11:34.348Z,80.58
2018-02-17T03:12:15.022Z,80.87
2018-02-17T03:12:55.602Z,80.68
2018-02-17T03:13:36.148Z,80.68
2018-02-17T03:14:16.714Z,80.87
2018-02-17T03:14:57.270Z,80.68
2018-02-17T03:15:37.883Z,80.68
2018-02-17T03:16:18.491Z,80.87
2018-02-17T03:16:59.035Z,80.96
2018-02-17T03:17:39.604Z,80.58
2018-02-17T03:18:20.176Z,80.68
2018-02-17T03:19:00.736Z,80.58
2018-02-17T03:19:41.292Z,80.87
2018-02-17T03:20:21.833Z,80.58
2018-02-17T03:21:02.389Z,80.68
2018-02-17T03:21:42.970Z,80.77
2018-02-17T03:22:23.518Z,80.58
2018-02-17T03:23:04.070Z,80.58
2018-02-17T03:23:44.674Z,80.96
2018-02-17T03:24:25.225Z,80.72
2018-02-17T03:25:05.766Z,80.63
2018-02-17T03:25:46.397Z,80.15
2018-02-17T03:26:26.959Z,80.91
2018-02-17T03:27:07.511Z,80.44
2018-02-17T03:27:48.076Z,80.91
2018-02-17T03:28:28.696Z,80.91
2018-02-17T03:29:09.293Z,80.91
2018-02-17T03:29:49.838Z,80.91
2018-02-17T03:30:30.392Z,80.72
2018-02-17T03:31:10.961Z,80.63
2018-02-17T03:31:51.521Z,80.68
2018-02-17T03:32:32.090Z,80.44
2018-02-17T03:33:12.655Z,79.96
2018-02-17T03:33:53.217Z,80.53
2018-02-17T03:34:33.760Z,80.63
2018-02-17T03:35:14.326Z,80.34
2018-02-17T03:35:54.893Z,80.53
2018-02-17T03:36:35.447Z,80.15
2018-02-17T03:37:15.987Z,80.44
2018-02-17T03:37:56.587Z,80.25
2018-02-17T03:38:37.112Z,80.25
2018-02-17T03:39:17.673Z,80.53
2018-02-17T03:39:58.234Z,80.63
2018-02-17T03:40:38.816Z,80.44
2018-02-17T03:41:19.404Z,80.72
2018-02-17T03:42:00.018Z,80.44
2018-02-17T03:42:40.525Z,80.34
2018-02-17T03:43:21.093Z,80.34
2018-02-17T03:44:01.692Z,80.06
2018-02-17T03:44:42.251Z,80.53
2018-02-17T03:45:22.810Z,80.53
2018-02-17T03:46:03.390Z,80.63
2018-02-17T03:46:43.954Z,79.96
2018-02-17T03:47:24.514Z,79.96
2018-02-17T03:48:05.038Z,79.96
2018-02-17T03:48:45.625Z,79.96
2018-02-17T03:49:26.160Z,80.15
2018-02-17T03:50:06.702Z,80.34
2018-02-17T03:50:47.270Z,79.96
2018-02-17T03:51:27.798Z,80.06
2018-02-17T03:52:08.352Z,80.53
2018-02-17T03:52:48.889Z,80.72
2018-02-17T03:53:29.448Z,80.53
2018-02-17T03:54:10.015Z,80.63
2018-02-17T03:54:50.561Z,80.53
2018-02-17T03:55:31.108Z,80.06
2018-02-17T03:56:11.665Z,80.15
2018-02-17T03:56:52.217Z,79.77
2018-02-17T03:57:32.770Z,80.34
2018-02-17T03:58:13.312Z,80.15
2018-02-17T03:58:53.884Z,80.53
2018-02-17T03:59:34.425Z,80.53
2018-02-17T04:00:14.975Z,80.34
2018-02-17T04:00:55.523Z,79.96
2018-02-17T04:01:36.069Z,79.87
2018-02-17T04:02:16.613Z,80.15
2018-02-17T04:02:57.206Z,80.25
2018-02-17T04:03:37.727Z,80.44
2018-02-17T04:04:18.274Z,80.15
2018-02-17T04:04:58.802Z,80.34
2018-02-17T04:05:39.379Z,80.15
2018-02-17T04:06:19.905Z,80.44
2018-02-17T04:07:00.487Z,80.53
2018-02-17T04:07:41.031Z,80.15
2018-02-17T04:08:21.586Z,80.25
2018-02-17T04:09:02.137Z,80.25
2018-02-17T04:09:42.738Z,80.15
2018-02-17T04:10:23.300Z,80.06
2018-02-17T04:11:03.862Z,79.68
2018-02-17T04:11:44.427Z,79.87
2018-02-17T04:12:24.981Z,79.77
2018-02-17T04:13:05.689Z,79.87
2018-02-17T04:13:46.240Z,79.96
2018-02-17T04:14:26.797Z,80.15
2018-02-17T04:15:07.352Z,80.34
2018-02-17T04:15:47.892Z,79.96
2018-02-17T04:16:28.453Z,80.15
2018-02-17T04:17:09.008Z,80.11
2018-02-17T04:17:49.576Z,79.93
2018-02-17T04:18:30.138Z,80.06
2018-02-17T04:19:10.695Z,80.53
2018-02-17T04:19:51.282Z,80.25
2018-02-17T04:20:31.852Z,80.63
2018-02-17T04:21:12.420Z,80.11
2018-02-17T04:21:52.955Z,80.15
2018-02-17T04:22:33.507Z,80.02
2018-02-17T04:23:14.050Z,80.58
2018-02-17T04:23:54.606Z,80.49
2018-02-17T04:24:35.164Z,80.58
2018-02-17T04:25:15.743Z,80.49
2018-02-17T04:25:56.317Z,80.87
2018-02-17T04:26:36.888Z,80.58
2018-02-17T04:27:17.441Z,80.49
2018-02-17T04:27:57.983Z,80.87
2018-02-17T04:28:38.543Z,80.87
2018-02-17T04:29:19.094Z,80.68
2018-02-17T04:29:59.657Z,80.87
2018-02-17T04:30:40.214Z,80.87
2018-02-17T04:31:20.754Z,81.53
2018-02-17T04:32:01.305Z,81.53
2018-02-17T04:32:41.850Z,81.34
2018-02-17T04:33:22.400Z,81.34
2018-02-17T04:34:02.960Z,81.34
2018-02-17T04:34:43.501Z,81.25
2018-02-17T04:35:24.061Z,81.53
2018-02-17T04:36:04.602Z,81.72
2018-02-17T04:36:45.157Z,81.34
2018-02-17T04:37:25.708Z,81.53
2018-02-17T04:38:06.260Z,81.53
2018-02-17T04:38:46.807Z,82.01
2018-02-17T04:39:27.370Z,81.92
2018-02-17T04:40:07.928Z,81.82
2018-02-17T04:40:48.494Z,81.82
2018-02-17T04:41:29.104Z,82.1
2018-02-17T04:42:09.799Z,82.1
2018-02-17T04:42:50.346Z,81.92
2018-02-17T04:43:30.890Z,81.92
2018-02-17T04:44:11.454Z,82.01
2018-02-17T04:44:51.984Z,82.1
2018-02-17T04:45:32.517Z,82.2
2018-02-17T04:46:13.100Z,82.2
2018-02-17T04:46:53.683Z,82.29
2018-02-17T04:47:34.232Z,81.82
2018-02-17T04:48:14.787Z,82.1
2018-02-17T04:48:55.328Z,81.72
2018-02-17T04:49:35.886Z,81.82
2018-02-17T04:50:16.436Z,82.39
2018-02-17T04:50:57.012Z,82.67
2018-02-17T04:51:37.567Z,82.57
2018-02-17T04:52:18.154Z,82.57
2018-02-17T04:52:58.688Z,82.57
2018-02-17T04:53:39.248Z,82.67
2018-02-17T04:54:19.813Z,82.29
2018-02-17T04:55:00.357Z,82.2
2018-02-17T04:55:40.890Z,82.67
2018-02-17T04:56:21.453Z,82.48
2018-02-17T04:57:02.014Z,82.39
2018-02-17T04:57:42.585Z,82.39
2018-02-17T04:58:23.122Z,82.1
2018-02-17T04:59:03.701Z,82.2
2018-02-17T04:59:44.262Z,82.2
2018-02-17T05:00:24.823Z,81.82
2018-02-17T05:01:05.414Z,82.29
2018-02-17T05:01:45.975Z,82.1
2018-02-17T05:02:26.541Z,81.82
2018-02-17T05:03:07.094Z,82.57
2018-02-17T05:03:47.653Z,82.86
2018-02-17T05:04:28.198Z,82.39
2018-02-17T05:05:08.748Z,82.2
2018-02-17T05:05:49.330Z,82.76
2018-02-17T05:06:29.904Z,82.1
2018-02-17T05:07:10.456Z,82.1
2018-02-17T05:07:51.011Z,82.01
2018-02-17T05:08:31.570Z,81.92
2018-02-17T05:09:12.125Z,82.2
2018-02-17T05:09:52.674Z,81.72
2018-02-17T05:10:33.226Z,82.2
2018-02-17T05:11:13.852Z,81.72
2018-02-17T05:11:54.404Z,81.82
2018-02-17T05:12:34.972Z,82.01
2018-02-17T05:13:15.507Z,81.82
2018-02-17T05:13:56.059Z,81.72
2018-02-17T05:14:36.750Z,81.67
2018-02-17T05:15:17.293Z,81.63
2018-02-17T05:15:57.834Z,81.72
2018-02-17T05:16:38.386Z,81.95
2018-02-17T05:17:18.940Z,81.95
2018-02-17T05:17:59.486Z,81.95
2018-02-17T05:18:40.032Z,82.05
2018-02-17T05:19:20.610Z,82.05
2018-02-17T05:20:01.146Z,82.14
2018-02-17T05:20:41.697Z,82.14
2018-02-17T05:21:22.271Z,81.76
2018-02-17T05:22:02.867Z,82.05
2018-02-17T05:22:43.420Z,82.24
2018-02-17T05:23:23.986Z,81.38
2018-02-17T05:24:04.540Z,81.57
2018-02-17T05:24:45.099Z,81.76
2018-02-17T05:25:25.659Z,81.38
2018-02-17T05:26:06.205Z,81.76
2018-02-17T05:26:46.753Z,81.67
2018-02-17T05:27:27.322Z,81.38
2018-02-17T05:28:07.867Z,81.76
2018-02-17T05:28:48.429Z,81.57
2018-02-17T05:29:28.983Z,81.76
2018-02-17T05:30:09.553Z,81.76
2018-02-17T05:30:50.099Z,81.57
2018-02-17T05:31:30.673Z,81.86
2018-02-17T05:32:11.327Z,82.05
2018-02-17T05:32:51.886Z,81.95
2018-02-17T05:33:32.466Z,82.24
2018-02-17T05:34:13.022Z,81.48
2018-02-17T05:34:53.602Z,81.57
2018-02-17T05:35:34.168Z,81.29
2018-02-17T05:36:14.754Z,81.67
2018-02-17T05:36:55.257Z,81.57
2018-02-17T05:37:35.814Z,81.01
2018-02-17T05:38:16.366Z,81.01
2018-02-17T05:38:56.900Z,81.01
2018-02-17T05:39:37.450Z,80.72
2018-02-17T05:40:17.988Z,81.01
2018-02-17T05:40:58.633Z,80.72
2018-02-17T05:41:39.195Z,81.01
2018-02-17T05:42:19.820Z,81.29
2018-02-17T05:43:00.301Z,81.38
2018-02-17T05:43:40.900Z,81.48
2018-02-17T05:44:21.889Z,81.38
2018-02-17T05:45:02.248Z,81.57
2018-02-17T05:45:42.825Z,81.01
2018-02-17T05:46:23.389Z,81.2
2018-02-17T05:47:04.066Z,80.91
2018-02-17T05:47:44.618Z,81.01
2018-02-17T05:48:25.284Z,80.82
2018-02-17T05:49:05.962Z,81.1
2018-02-17T05:49:46.519Z,80.91
2018-02-17T05:50:27.077Z,80.82
2018-02-17T05:51:07.694Z,80.82
2018-02-17T05:51:48.217Z,80.91
2018-02-17T05:52:28.808Z,80.82
2018-02-17T05:53:09.351Z,81.01
2018-02-17T05:53:49.904Z,80.91
2018-02-17T05:54:30.638Z,80.72
2018-02-17T05:55:11.108Z,80.72
2018-02-17T05:55:51.637Z,81.1
2018-02-17T05:56:32.190Z,80.82
2018-02-17T05:57:12.743Z,80.63
2018-02-17T05:57:53.327Z,81.01
2018-02-17T05:58:33.904Z,80.91
2018-02-17T05:59:14.467Z,81.57
2018-02-17T05:59:55.021Z,81.29
2018-02-17T06:00:35.574Z,80.82
2018-02-17T06:01:16.149Z,81.1
2018-02-17T06:01:56.720Z,81.01
2018-02-17T06:02:37.307Z,81.38
2018-02-17T06:03:17.866Z,81.38
2018-02-17T06:03:58.466Z,81.57
2018-02-17T06:04:39.035Z,81.29
2018-02-17T06:05:19.588Z,81.29
2018-02-17T06:06:00.135Z,81.38
2018-02-17T06:06:40.686Z,81.2
2018-02-17T06:07:21.243Z,81.29
2018-02-17T06:08:01.787Z,81.57
2018-02-17T06:08:42.361Z,81.38
2018-02-17T06:09:22.926Z,81.38
2018-02-17T06:10:03.595Z,81.01
2018-02-17T06:10:44.079Z,81.01
2018-02-17T06:11:24.640Z,80.91
2018-02-17T06:12:05.225Z,80.91
2018-02-17T06:12:45.947Z,80.44
2018-02-17T06:13:26.513Z,80.06
2018-02-17T06:14:07.086Z,80.63
2018-02-17T06:14:47.619Z,80.53
2018-02-17T06:15:28.154Z,80.91
2018-02-17T06:16:08.712Z,80.82
2018-02-17T06:16:49.264Z,81.2
2018-02-17T06:17:29.826Z,81.2
2018-02-17T06:18:10.366Z,80.72
2018-02-17T06:18:50.927Z,81.1
2018-02-17T06:19:31.505Z,81.57
2018-02-17T06:20:12.062Z,81.38
2018-02-17T06:20:52.623Z,80.91
2018-02-17T06:21:33.241Z,80.72
2018-02-17T06:22:13.767Z,80.91
2018-02-17T06:22:54.332Z,81.01
2018-02-17T06:23:34.909Z,81.38
2018-02-17T06:24:15.453Z,80.91
2018-02-17T06:24:56.000Z,80.82
2018-02-17T06:25:36.549Z,80.91
2018-02-17T06:26:17.110Z,80.91
2018-02-17T06:26:57.655Z,80.91
2018-02-17T06:27:38.391Z,80.91
2018-02-17T06:28:18.953Z,80.91
2018-02-17T06:28:59.495Z,81.1
2018-02-17T06:29:40.037Z,80.91
2018-02-17T06:30:20.589Z,81.01
2018-02-17T06:31:01.165Z,80.91
2018-02-17T06:31:41.714Z,81.01
2018-02-17T06:32:22.262Z,80.34
2018-02-17T06:33:02.821Z,80.82
2018-02-17T06:33:43.372Z,81.01
2018-02-17T06:34:23.916Z,80.91
2018-02-17T06:35:04.468Z,81.01
2018-02-17T06:35:45.038Z,81.57
2018-02-17T06:36:25.569Z,81.38
2018-02-17T06:37:06.871Z,81.2
2018-02-17T06:37:47.458Z,81.57
2018-02-17T06:38:27.962Z,81.48
2018-02-17T06:39:08.518Z,81.48
2018-02-17T06:39:49.263Z,81.76
2018-02-17T06:40:29.814Z,81.57
2018-02-17T06:41:10.382Z,81.38
2018-02-17T06:41:50.964Z,81.29
2018-02-17T06:42:31.515Z,81.29
2018-02-17T06:43:12.209Z,81.38
2018-02-17T06:43:52.762Z,81.48
2018-02-17T06:44:33.325Z,81.48
2018-02-17T06:45:13.885Z,81.38
2018-02-17T06:45:54.445Z,80.91
2018-02-17T06:46:34.968Z,81.29
2018-02-17T06:47:15.519Z,81.1
2018-02-17T06:47:56.086Z,80.63
2018-02-17T06:48:36.665Z,80.82
2018-02-17T06:49:17.250Z,81.1
2018-02-17T06:49:57.818Z,80.63
2018-02-17T06:50:38.357Z,80.82
2018-02-17T06:51:18.913Z,80.63
2018-02-17T06:51:59.460Z,80.63
2018-02-17T06:52:40.022Z,80.63
2018-02-17T06:53:20.582Z,80.63
2018-02-17T06:54:01.124Z,81.01
2018-02-17T06:54:41.683Z,80.91
2018-02-17T06:55:22.227Z,80.91
2018-02-17T06:56:02.778Z,80.72
2018-02-17T06:56:43.339Z,80.91
2018-02-17T06:57:23.900Z,80.63
2018-02-17T06:58:04.451Z,80.91
2018-02-17T06:58:44.988Z,80.91
2018-02-17T06:59:25.554Z,80.63
2018-02-17T07:00:06.106Z,80.53
2018-02-17T07:00:46.653Z,80.34
2018-02-17T07:01:27.208Z,80.82
2018-02-17T07:02:07.758Z,80.63
2018-02-17T07:02:48.303Z,81.1
2018-02-17T07:03:28.855Z,81.01
2018-02-17T07:04:09.401Z,80.82
2018-02-17T07:04:49.958Z,80.91
2018-02-17T07:05:30.768Z,80.91
2018-02-17T07:06:11.330Z,80.53
2018-02-17T07:06:52.157Z,80.82
2018-02-17T07:07:32.701Z,80.91
2018-02-17T07:08:13.272Z,80.82
2018-02-17T07:08:53.820Z,80.91
2018-02-17T07:09:34.376Z,80.63
2018-02-17T07:10:14.925Z,80.44
2018-02-17T07:10:55.728Z,80.44
2018-02-17T07:11:36.256Z,80.44
2018-02-17T07:12:16.816Z,80.44
2018-02-17T07:12:57.496Z,80.25
2018-02-17T07:16:42.603Z,80.48
2018-02-17T07:17:23.177Z,80.57
2018-02-17T07:18:03.882Z,80.34
2018-02-17T07:18:44.437Z,80.38
2018-02-17T07:19:24.982Z,80.34
2018-02-17T07:20:05.533Z,80.34
2018-02-17T07:20:46.067Z,80.34
2018-02-17T07:21:26.620Z,80.63
2018-02-17T07:22:07.190Z,80.63
2018-02-17T07:22:47.749Z,80.53
2018-02-17T07:23:28.288Z,80.63
2018-02-17T07:24:08.894Z,80.63
2018-02-17T07:24:49.416Z,80.48
2018-02-17T07:25:29.964Z,80.82
2018-02-17T07:26:10.505Z,80.76
2018-02-17T07:26:51.056Z,80.72
2018-02-17T07:27:31.600Z,80.67
2018-02-17T07:28:12.167Z,80.67
2018-02-17T07:28:52.751Z,80.19
2018-02-17T07:29:33.292Z,80.67
2018-02-17T07:30:13.930Z,80.48
2018-02-17T07:30:54.581Z,80.1
2018-02-17T07:31:35.139Z,80.19
2018-02-17T07:32:15.711Z,80
2018-02-17T07:32:56.265Z,80.19
2018-02-17T07:33:36.861Z,80.19
2018-02-17T07:34:17.395Z,80.1
2018-02-17T07:34:57.979Z,80.19
2018-02-17T07:35:38.730Z,80.19
2018-02-17T07:36:19.276Z,80.19
2018-02-17T07:36:59.816Z,80.19
2018-02-17T07:37:40.386Z,80
2018-02-17T07:38:20.943Z,80
2018-02-17T07:39:01.725Z,79.91
2018-02-17T07:39:42.553Z,80.19
2018-02-17T07:40:23.273Z,80.29
2018-02-17T07:41:05.159Z,80.1
2018-02-17T07:41:45.712Z,80.29
2018-02-17T07:42:26.374Z,80.19
2018-02-17T07:43:07.751Z,80.29
2018-02-17T07:43:48.446Z,80.48
2018-02-17T07:44:29.018Z,80.19
2018-02-17T07:45:10.771Z,80.1
2018-02-17T07:45:51.427Z,80.1
2018-02-17T07:46:31.976Z,80.1
2018-02-17T07:47:12.643Z,80.19
2018-02-17T07:47:53.200Z,80.29
2018-02-17T07:48:33.808Z,80.19
2018-02-17T07:49:14.360Z,80
2018-02-17T07:49:54.910Z,79.91
2018-02-17T07:50:35.460Z,80
2018-02-17T07:51:16.020Z,80.1
2018-02-17T07:51:56.684Z,80.1
2018-02-17T07:52:37.244Z,80.38
2018-02-17T07:53:17.886Z,80.19
2018-02-17T07:53:58.438Z,80.29
2018-02-17T07:54:39.001Z,80.19
2018-02-17T07:55:19.947Z,80.19
2018-02-17T07:56:01.060Z,80.38
2018-02-17T07:56:41.640Z,80.29
2018-02-17T07:57:22.179Z,80.48
2018-02-17T07:58:02.751Z,80.29
2018-02-17T07:58:43.316Z,80.29
2018-02-17T07:59:24.011Z,80.48
2018-02-17T08:00:04.538Z,80.29
2018-02-17T08:00:45.619Z,80.38
2018-02-17T08:01:26.171Z,80.38
2018-02-17T08:02:06.769Z,80.19
2018-02-17T08:02:47.319Z,80.19
2018-02-17T08:03:27.923Z,80.48
2018-02-17T08:04:08.489Z,80.29
2018-02-17T08:04:49.051Z,80.38
2018-02-17T08:05:29.590Z,80.29
2018-02-17T08:06:10.170Z,80.29
2018-02-17T08:06:50.721Z,80.19
2018-02-17T08:07:31.280Z,80.38
2018-02-17T08:08:18.524Z,80.29
2018-02-17T08:08:59.078Z,80.48
2018-02-17T08:09:39.646Z,80
2018-02-17T08:10:20.178Z,80.19
2018-02-17T08:11:00.722Z,79.53
2018-02-17T08:11:41.292Z,79.34
2018-02-17T08:12:21.987Z,79.15
2018-02-17T08:13:02.668Z,79.15
2018-02-17T08:13:43.239Z,79.63
2018-02-17T08:14:23.830Z,79.53
2018-02-17T08:15:04.650Z,79.91
2018-02-17T08:15:45.494Z,80.1
2018-02-17T08:16:26.148Z,80
2018-02-17T08:17:06.705Z,80
2018-02-17T08:17:47.333Z,80.1
2018-02-17T08:18:28.174Z,80.48
2018-02-17T08:19:09.647Z,80.1
2018-02-17T08:19:50.322Z,80.19
2018-02-17T08:20:31.031Z,80
2018-02-17T08:21:11.585Z,80
2018-02-17T08:21:52.294Z,80.19
2018-02-17T08:22:34.141Z,80
2018-02-17T08:23:15.962Z,80
2018-02-17T08:23:57.074Z,79.91
2018-02-17T08:24:37.845Z,80.19
2018-02-17T08:25:18.474Z,80.19
2018-02-17T08:25:59.027Z,80.29
2018-02-17T08:26:39.637Z,80
2018-02-17T08:27:20.265Z,79.91
2018-02-17T08:28:00.830Z,80
2018-02-17T08:28:41.379Z,80.19
2018-02-17T08:29:21.940Z,79.72
2018-02-17T08:30:02.502Z,80.1
2018-02-17T08:30:43.090Z,79.82
2018-02-17T08:31:23.671Z,79.91
2018-02-17T08:32:04.250Z,79.91
2018-02-17T08:32:44.861Z,80
2018-02-17T08:33:25.489Z,79.91
2018-02-17T08:34:06.056Z,79.72
2018-02-17T08:34:46.609Z,80
2018-02-17T08:35:27.166Z,79.82
2018-02-17T08:36:07.987Z,79.63
2018-02-17T08:36:48.547Z,79.72
2018-02-17T08:37:29.116Z,79.72
2018-02-17T08:38:09.787Z,79.91
2018-02-17T08:38:50.726Z,80
2018-02-17T08:39:31.746Z,79.53
2018-02-17T08:40:12.607Z,79.91
2018-02-17T08:40:53.659Z,79.72
2018-02-17T08:41:35.430Z,79.63
2018-02-17T08:42:16.407Z,79.91
2018-02-17T08:42:57.344Z,79.44
2018-02-17T08:43:37.939Z,79.15
2018-02-17T08:44:18.600Z,79.53
2018-02-17T08:45:00.059Z,79.25
2018-02-17T08:45:41.014Z,79.53
2018-02-17T08:46:21.578Z,79.44
2018-02-17T08:47:02.146Z,79.34
2018-02-17T08:47:42.714Z,79.63
2018-02-17T08:48:23.351Z,79.44